sensor_id;sensor_type;location;lat;lon;timestamp;temperature;humidity
52034;DHT22;38045;52.988;6.536;2023-04-19T00:01:18;8.60;99.90
52034;DHT22;38045;52.988;6.536;2023-04-19T00:03:44;8.60;99.90
52034;DHT22;38045;52.988;6.536;2023-04-19T00:06:10;8.60;99.90
52034;DHT22;38045;52.988;6.536;2023-04-19T00:08:38;8.50;99.90
52034;DHT22;38045;52.988;6.536;2023-04-19T00:11:04;8.40;99.90
52034;DHT22;38045;52.988;6.536;2023-04-19T00:13:30;8.30;99.90
52034;DHT22;38045;52.988;6.536;2023-04-19T00:15:55;8.30;99.90
52034;DHT22;38045;52.988;6.536;2023-04-19T00:18:21;8.20;99.90
52034;DHT22;38045;52.988;6.536;2023-04-19T00:20:46;8.20;99.90
52034;DHT22;38045;52.988;6.536;2023-04-19T00:23:13;8.20;99.90
52034;DHT22;38045;52.988;6.536;2023-04-19T00:25:38;8.20;99.90
52034;DHT22;38045;52.988;6.536;2023-04-19T00:28:04;8.20;99.90
52034;DHT22;38045;52.988;6.536;2023-04-19T00:30:30;8.20;99.90
52034;DHT22;38045;52.988;6.536;2023-04-19T00:32:55;8.20;99.90
52034;DHT22;38045;52.988;6.536;2023-04-19T00:35:21;8.30;99.90
52034;DHT22;38045;52.988;6.536;2023-04-19T00:37:47;8.20;99.90
52034;DHT22;38045;52.988;6.536;2023-04-19T00:40:12;8.30;99.90
52034;DHT22;38045;52.988;6.536;2023-04-19T00:42:38;8.20;99.90
52034;DHT22;38045;52.988;6.536;2023-04-19T00:45:04;8.20;99.90
52034;DHT22;38045;52.988;6.536;2023-04-19T00:47:30;8.10;99.90
52034;DHT22;38045;52.988;6.536;2023-04-19T00:49:55;8.20;99.90
52034;DHT22;38045;52.988;6.536;2023-04-19T00:52:22;8.20;99.90
52034;DHT22;38045;52.988;6.536;2023-04-19T00:54:47;8.20;99.90
52034;DHT22;38045;52.988;6.536;2023-04-19T00:57:14;8.20;99.90
52034;DHT22;38045;52.988;6.536;2023-04-19T00:59:41;8.20;99.90
52034;DHT22;38045;52.988;6.536;2023-04-19T01:02:08;8.10;99.90
52034;DHT22;38045;52.988;6.536;2023-04-19T01:04:34;8.10;99.90
52034;DHT22;38045;52.988;6.536;2023-04-19T01:07:01;8.10;99.90
52034;DHT22;38045;52.988;6.536;2023-04-19T01:09:27;8.10;99.90
52034;DHT22;38045;52.988;6.536;2023-04-19T01:11:53;8.10;99.90
52034;DHT22;38045;52.988;6.536;2023-04-19T01:14:18;8.00;99.90
52034;DHT22;38045;52.988;6.536;2023-04-19T01:16:44;8.00;99.90
52034;DHT22;38045;52.988;6.536;2023-04-19T01:19:11;8.00;99.90
52034;DHT22;38045;52.988;6.536;2023-04-19T01:21:37;8.00;99.90
52034;DHT22;38045;52.988;6.536;2023-04-19T01:24:04;8.00;99.90
52034;DHT22;38045;52.988;6.536;2023-04-19T01:26:30;7.90;99.90
52034;DHT22;38045;52.988;6.536;2023-04-19T01:28:56;7.90;99.90
52034;DHT22;38045;52.988;6.536;2023-04-19T01:31:21;7.90;99.90
52034;DHT22;38045;52.988;6.536;2023-04-19T01:33:47;7.90;99.90
52034;DHT22;38045;52.988;6.536;2023-04-19T01:36:12;7.90;99.90
52034;DHT22;38045;52.988;6.536;2023-04-19T01:38:38;7.90;99.90
52034;DHT22;38045;52.988;6.536;2023-04-19T01:41:04;7.90;99.90
52034;DHT22;38045;52.988;6.536;2023-04-19T01:43:29;7.80;99.90
52034;DHT22;38045;52.988;6.536;2023-04-19T01:45:55;7.80;99.90
52034;DHT22;38045;52.988;6.536;2023-04-19T01:48:20;7.80;99.90
52034;DHT22;38045;52.988;6.536;2023-04-19T01:50:46;7.80;99.90
52034;DHT22;38045;52.988;6.536;2023-04-19T01:53:12;7.80;99.90
52034;DHT22;38045;52.988;6.536;2023-04-19T01:55:37;7.80;99.90
52034;DHT22;38045;52.988;6.536;2023-04-19T01:58:03;7.80;99.90
52034;DHT22;38045;52.988;6.536;2023-04-19T02:00:29;7.70;99.90
52034;DHT22;38045;52.988;6.536;2023-04-19T02:02:54;7.70;99.90
52034;DHT22;38045;52.988;6.536;2023-04-19T02:05:20;7.70;99.90
52034;DHT22;38045;52.988;6.536;2023-04-19T02:07:45;7.70;99.90
52034;DHT22;38045;52.988;6.536;2023-04-19T02:10:11;7.70;99.90
52034;DHT22;38045;52.988;6.536;2023-04-19T02:12:37;7.70;99.90
52034;DHT22;38045;52.988;6.536;2023-04-19T02:15:03;7.70;99.90
52034;DHT22;38045;52.988;6.536;2023-04-19T02:17:29;7.60;99.90
52034;DHT22;38045;52.988;6.536;2023-04-19T02:19:55;7.60;99.90
52034;DHT22;38045;52.988;6.536;2023-04-19T02:22:21;7.60;99.90
52034;DHT22;38045;52.988;6.536;2023-04-19T02:24:50;7.50;99.90
52034;DHT22;38045;52.988;6.536;2023-04-19T02:27:16;7.50;99.90
52034;DHT22;38045;52.988;6.536;2023-04-19T02:29:41;7.50;99.90
52034;DHT22;38045;52.988;6.536;2023-04-19T02:32:07;7.50;99.90
52034;DHT22;38045;52.988;6.536;2023-04-19T02:34:33;7.40;99.90
52034;DHT22;38045;52.988;6.536;2023-04-19T02:36:59;7.40;99.90
52034;DHT22;38045;52.988;6.536;2023-04-19T02:39:24;7.30;99.90
52034;DHT22;38045;52.988;6.536;2023-04-19T02:41:50;7.30;99.90
52034;DHT22;38045;52.988;6.536;2023-04-19T02:44:16;7.30;99.90
52034;DHT22;38045;52.988;6.536;2023-04-19T02:46:47;7.30;99.90
52034;DHT22;38045;52.988;6.536;2023-04-19T02:49:14;7.20;99.90
52034;DHT22;38045;52.988;6.536;2023-04-19T02:51:39;7.20;99.90
52034;DHT22;38045;52.988;6.536;2023-04-19T02:54:05;7.20;99.90
52034;DHT22;38045;52.988;6.536;2023-04-19T02:56:31;7.20;99.90
52034;DHT22;38045;52.988;6.536;2023-04-19T02:59:00;7.20;99.90
52034;DHT22;38045;52.988;6.536;2023-04-19T03:01:25;7.10;99.90
52034;DHT22;38045;52.988;6.536;2023-04-19T03:03:51;7.10;99.90
52034;DHT22;38045;52.988;6.536;2023-04-19T03:06:16;7.00;99.90
52034;DHT22;38045;52.988;6.536;2023-04-19T03:08:42;7.00;99.90
52034;DHT22;38045;52.988;6.536;2023-04-19T03:11:10;7.00;99.90
52034;DHT22;38045;52.988;6.536;2023-04-19T03:13:35;7.00;99.90
52034;DHT22;38045;52.988;6.536;2023-04-19T03:16:01;7.00;99.90
52034;DHT22;38045;52.988;6.536;2023-04-19T03:18:27;6.90;99.90
52034;DHT22;38045;52.988;6.536;2023-04-19T03:20:52;6.90;99.90
52034;DHT22;38045;52.988;6.536;2023-04-19T03:23:18;6.90;99.90
52034;DHT22;38045;52.988;6.536;2023-04-19T03:25:43;6.90;99.90
52034;DHT22;38045;52.988;6.536;2023-04-19T03:28:09;6.90;99.90
52034;DHT22;38045;52.988;6.536;2023-04-19T03:30:34;6.80;99.90
52034;DHT22;38045;52.988;6.536;2023-04-19T03:33:00;6.80;99.90
52034;DHT22;38045;52.988;6.536;2023-04-19T03:35:26;6.80;99.90
52034;DHT22;38045;52.988;6.536;2023-04-19T03:37:53;6.80;99.90
52034;DHT22;38045;52.988;6.536;2023-04-19T03:40:19;6.80;99.90
52034;DHT22;38045;52.988;6.536;2023-04-19T03:42:45;6.70;99.90
52034;DHT22;38045;52.988;6.536;2023-04-19T03:45:10;6.70;99.90
52034;DHT22;38045;52.988;6.536;2023-04-19T03:47:36;6.60;99.90
52034;DHT22;38045;52.988;6.536;2023-04-19T03:50:02;6.60;99.90
52034;DHT22;38045;52.988;6.536;2023-04-19T03:52:27;6.60;99.90
52034;DHT22;38045;52.988;6.536;2023-04-19T03:54:53;6.60;99.90
52034;DHT22;38045;52.988;6.536;2023-04-19T03:57:19;6.50;99.90
52034;DHT22;38045;52.988;6.536;2023-04-19T03:59:44;6.50;99.90
52034;DHT22;38045;52.988;6.536;2023-04-19T04:02:10;6.50;99.90
52034;DHT22;38045;52.988;6.536;2023-04-19T04:04:35;6.50;99.90
52034;DHT22;38045;52.988;6.536;2023-04-19T04:07:01;6.40;99.90
52034;DHT22;38045;52.988;6.536;2023-04-19T04:09:27;6.40;99.90
52034;DHT22;38045;52.988;6.536;2023-04-19T04:11:52;6.40;99.90
52034;DHT22;38045;52.988;6.536;2023-04-19T04:14:18;6.30;99.90
52034;DHT22;38045;52.988;6.536;2023-04-19T04:16:43;6.30;99.90
52034;DHT22;38045;52.988;6.536;2023-04-19T04:19:09;6.30;99.90
52034;DHT22;38045;52.988;6.536;2023-04-19T04:21:35;6.30;99.90
52034;DHT22;38045;52.988;6.536;2023-04-19T04:24:00;6.30;99.90
52034;DHT22;38045;52.988;6.536;2023-04-19T04:26:26;6.20;99.90
52034;DHT22;38045;52.988;6.536;2023-04-19T04:28:55;6.20;99.90
52034;DHT22;38045;52.988;6.536;2023-04-19T04:31:21;6.20;99.90
52034;DHT22;38045;52.988;6.536;2023-04-19T04:33:47;6.20;99.90
52034;DHT22;38045;52.988;6.536;2023-04-19T04:36:12;6.20;99.90
52034;DHT22;38045;52.988;6.536;2023-04-19T04:38:38;6.10;99.90
52034;DHT22;38045;52.988;6.536;2023-04-19T04:41:04;6.10;99.90
52034;DHT22;38045;52.988;6.536;2023-04-19T04:43:30;6.10;99.90
52034;DHT22;38045;52.988;6.536;2023-04-19T04:45:56;6.10;99.90
52034;DHT22;38045;52.988;6.536;2023-04-19T04:48:23;6.10;99.90
52034;DHT22;38045;52.988;6.536;2023-04-19T04:50:48;6.10;99.90
52034;DHT22;38045;52.988;6.536;2023-04-19T04:53:14;6.10;99.90
52034;DHT22;38045;52.988;6.536;2023-04-19T04:55:40;6.10;99.90
52034;DHT22;38045;52.988;6.536;2023-04-19T04:58:06;6.10;99.90
52034;DHT22;38045;52.988;6.536;2023-04-19T05:00:32;6.10;99.90
52034;DHT22;38045;52.988;6.536;2023-04-19T05:02:58;6.20;99.90
52034;DHT22;38045;52.988;6.536;2023-04-19T05:05:24;6.10;99.90
52034;DHT22;38045;52.988;6.536;2023-04-19T05:07:50;6.10;99.90
52034;DHT22;38045;52.988;6.536;2023-04-19T05:10:15;6.20;99.90
52034;DHT22;38045;52.988;6.536;2023-04-19T05:12:41;6.20;99.90
52034;DHT22;38045;52.988;6.536;2023-04-19T05:15:07;6.20;99.90
52034;DHT22;38045;52.988;6.536;2023-04-19T05:17:33;6.20;99.90
52034;DHT22;38045;52.988;6.536;2023-04-19T05:19:59;6.20;99.90
52034;DHT22;38045;52.988;6.536;2023-04-19T05:22:24;6.20;99.90
52034;DHT22;38045;52.988;6.536;2023-04-19T05:24:50;6.30;99.90
52034;DHT22;38045;52.988;6.536;2023-04-19T05:27:16;6.40;99.90
52034;DHT22;38045;52.988;6.536;2023-04-19T05:29:41;6.40;99.90
52034;DHT22;38045;52.988;6.536;2023-04-19T05:32:07;6.40;99.90
52034;DHT22;38045;52.988;6.536;2023-04-19T05:34:34;6.50;99.90
52034;DHT22;38045;52.988;6.536;2023-04-19T05:37:01;6.50;99.90
52034;DHT22;38045;52.988;6.536;2023-04-19T05:39:27;6.50;99.90
52034;DHT22;38045;52.988;6.536;2023-04-19T05:41:53;6.50;99.90
52034;DHT22;38045;52.988;6.536;2023-04-19T05:44:18;6.60;99.90
52034;DHT22;38045;52.988;6.536;2023-04-19T05:46:44;6.60;99.90
52034;DHT22;38045;52.988;6.536;2023-04-19T05:49:09;6.70;99.90
52034;DHT22;38045;52.988;6.536;2023-04-19T05:51:35;6.70;99.90
52034;DHT22;38045;52.988;6.536;2023-04-19T05:54:01;6.80;99.90
52034;DHT22;38045;52.988;6.536;2023-04-19T05:56:27;6.80;99.90
52034;DHT22;38045;52.988;6.536;2023-04-19T05:58:53;6.90;99.90
52034;DHT22;38045;52.988;6.536;2023-04-19T06:01:20;6.90;99.90
52034;DHT22;38045;52.988;6.536;2023-04-19T06:03:46;6.90;99.90
52034;DHT22;38045;52.988;6.536;2023-04-19T06:06:12;7.00;99.90
52034;DHT22;38045;52.988;6.536;2023-04-19T06:08:37;7.10;99.90
52034;DHT22;38045;52.988;6.536;2023-04-19T06:11:03;7.10;99.90
52034;DHT22;38045;52.988;6.536;2023-04-19T06:13:29;7.10;99.90
52034;DHT22;38045;52.988;6.536;2023-04-19T06:15:54;7.20;99.90
52034;DHT22;38045;52.988;6.536;2023-04-19T06:18:20;7.20;99.90
52034;DHT22;38045;52.988;6.536;2023-04-19T06:20:46;7.30;99.90
52034;DHT22;38045;52.988;6.536;2023-04-19T06:23:11;7.30;99.90
52034;DHT22;38045;52.988;6.536;2023-04-19T06:25:38;7.40;99.90
52034;DHT22;38045;52.988;6.536;2023-04-19T06:28:03;7.40;99.90
52034;DHT22;38045;52.988;6.536;2023-04-19T06:30:29;7.50;99.90
52034;DHT22;38045;52.988;6.536;2023-04-19T06:32:55;7.50;99.90
52034;DHT22;38045;52.988;6.536;2023-04-19T06:35:20;7.60;99.90
52034;DHT22;38045;52.988;6.536;2023-04-19T06:37:46;7.60;99.90
52034;DHT22;38045;52.988;6.536;2023-04-19T06:40:11;7.70;99.90
52034;DHT22;38045;52.988;6.536;2023-04-19T06:42:37;7.70;99.90
52034;DHT22;38045;52.988;6.536;2023-04-19T06:45:03;7.80;99.90
52034;DHT22;38045;52.988;6.536;2023-04-19T06:47:29;7.90;99.90
52034;DHT22;38045;52.988;6.536;2023-04-19T06:49:56;7.90;99.90
52034;DHT22;38045;52.988;6.536;2023-04-19T06:52:22;8.00;99.90
52034;DHT22;38045;52.988;6.536;2023-04-19T06:54:48;8.10;99.90
52034;DHT22;38045;52.988;6.536;2023-04-19T06:57:17;8.00;99.90
52034;DHT22;38045;52.988;6.536;2023-04-19T06:59:43;8.10;99.90
52034;DHT22;38045;52.988;6.536;2023-04-19T07:02:09;8.20;99.90
52034;DHT22;38045;52.988;6.536;2023-04-19T07:04:35;8.20;99.90
52034;DHT22;38045;52.988;6.536;2023-04-19T07:07:02;8.30;99.90
52034;DHT22;38045;52.988;6.536;2023-04-19T07:09:27;8.40;99.90
52034;DHT22;38045;52.988;6.536;2023-04-19T07:11:53;8.40;99.90
52034;DHT22;38045;52.988;6.536;2023-04-19T07:14:19;8.50;99.90
52034;DHT22;38045;52.988;6.536;2023-04-19T07:16:45;8.50;99.90
52034;DHT22;38045;52.988;6.536;2023-04-19T07:19:11;8.60;99.90
52034;DHT22;38045;52.988;6.536;2023-04-19T07:21:37;8.70;99.90
52034;DHT22;38045;52.988;6.536;2023-04-19T07:24:04;8.70;99.90
52034;DHT22;38045;52.988;6.536;2023-04-19T07:26:31;8.80;99.90
52034;DHT22;38045;52.988;6.536;2023-04-19T07:28:57;8.90;99.90
52034;DHT22;38045;52.988;6.536;2023-04-19T07:31:23;9.00;99.90
52034;DHT22;38045;52.988;6.536;2023-04-19T07:33:52;9.00;99.90
52034;DHT22;38045;52.988;6.536;2023-04-19T07:36:17;9.10;99.90
52034;DHT22;38045;52.988;6.536;2023-04-19T07:38:43;9.20;99.90
52034;DHT22;38045;52.988;6.536;2023-04-19T07:41:09;9.30;99.90
52034;DHT22;38045;52.988;6.536;2023-04-19T07:43:35;9.30;99.90
52034;DHT22;38045;52.988;6.536;2023-04-19T07:46:01;9.40;99.90
52034;DHT22;38045;52.988;6.536;2023-04-19T07:48:26;9.50;99.90
52034;DHT22;38045;52.988;6.536;2023-04-19T07:50:52;9.50;99.90
52034;DHT22;38045;52.988;6.536;2023-04-19T07:53:18;9.60;99.90
52034;DHT22;38045;52.988;6.536;2023-04-19T07:55:44;9.70;99.90
52034;DHT22;38045;52.988;6.536;2023-04-19T07:58:10;9.70;99.90
52034;DHT22;38045;52.988;6.536;2023-04-19T08:00:36;9.80;99.90
52034;DHT22;38045;52.988;6.536;2023-04-19T08:03:02;9.80;99.90
52034;DHT22;38045;52.988;6.536;2023-04-19T08:05:29;9.90;99.90
52034;DHT22;38045;52.988;6.536;2023-04-19T08:07:55;10.00;99.90
52034;DHT22;38045;52.988;6.536;2023-04-19T08:10:21;10.10;99.90
52034;DHT22;38045;52.988;6.536;2023-04-19T08:12:47;10.10;99.90
52034;DHT22;38045;52.988;6.536;2023-04-19T08:15:14;10.20;99.90
52034;DHT22;38045;52.988;6.536;2023-04-19T08:17:40;10.20;99.90
52034;DHT22;38045;52.988;6.536;2023-04-19T08:20:09;10.30;99.90
52034;DHT22;38045;52.988;6.536;2023-04-19T08:22:35;10.40;99.90
52034;DHT22;38045;52.988;6.536;2023-04-19T08:25:01;10.50;99.90
52034;DHT22;38045;52.988;6.536;2023-04-19T08:27:27;10.60;99.90
52034;DHT22;38045;52.988;6.536;2023-04-19T08:29:52;10.60;99.90
52034;DHT22;38045;52.988;6.536;2023-04-19T08:32:18;10.60;99.90
52034;DHT22;38045;52.988;6.536;2023-04-19T08:34:43;10.70;99.90
52034;DHT22;38045;52.988;6.536;2023-04-19T08:37:09;10.80;99.90
52034;DHT22;38045;52.988;6.536;2023-04-19T08:39:35;10.80;99.90
52034;DHT22;38045;52.988;6.536;2023-04-19T08:42:04;11.00;99.90
52034;DHT22;38045;52.988;6.536;2023-04-19T08:44:31;11.10;99.70
52034;DHT22;38045;52.988;6.536;2023-04-19T08:46:58;11.20;99.90
52034;DHT22;38045;52.988;6.536;2023-04-19T08:49:24;11.30;99.90
52034;DHT22;38045;52.988;6.536;2023-04-19T08:51:50;11.50;99.00
52034;DHT22;38045;52.988;6.536;2023-04-19T08:54:17;11.50;99.10
52034;DHT22;38045;52.988;6.536;2023-04-19T08:56:44;11.60;98.40
52034;DHT22;38045;52.988;6.536;2023-04-19T08:59:09;11.70;97.50
52034;DHT22;38045;52.988;6.536;2023-04-19T09:01:35;11.70;97.70
52034;DHT22;38045;52.988;6.536;2023-04-19T09:04:05;11.70;97.60
52034;DHT22;38045;52.988;6.536;2023-04-19T09:06:39;11.80;97.30
52034;DHT22;38045;52.988;6.536;2023-04-19T09:09:15;11.90;96.20
52034;DHT22;38045;52.988;6.536;2023-04-19T09:11:41;12.00;96.40
52034;DHT22;38045;52.988;6.536;2023-04-19T09:14:10;12.10;96.70
52034;DHT22;38045;52.988;6.536;2023-04-19T09:16:36;12.20;96.00
52034;DHT22;38045;52.988;6.536;2023-04-19T09:19:02;12.20;93.50
52034;DHT22;38045;52.988;6.536;2023-04-19T09:21:29;12.20;93.60
52034;DHT22;38045;52.988;6.536;2023-04-19T09:23:55;12.20;94.30
52034;DHT22;38045;52.988;6.536;2023-04-19T09:26:21;12.30;94.00
52034;DHT22;38045;52.988;6.536;2023-04-19T09:31:23;12.60;92.50
52034;DHT22;38045;52.988;6.536;2023-04-19T09:33:50;12.50;92.70
52034;DHT22;38045;52.988;6.536;2023-04-19T09:36:36;12.60;93.00
52034;DHT22;38045;52.988;6.536;2023-04-19T09:39:01;12.70;93.60
52034;DHT22;38045;52.988;6.536;2023-04-19T09:41:27;12.90;94.00
52034;DHT22;38045;52.988;6.536;2023-04-19T09:43:53;13.00;94.00
52034;DHT22;38045;52.988;6.536;2023-04-19T09:46:35;13.00;92.30
52034;DHT22;38045;52.988;6.536;2023-04-19T09:51:43;13.20;93.20
52034;DHT22;38045;52.988;6.536;2023-04-19T09:54:09;13.20;92.70
52034;DHT22;38045;52.988;6.536;2023-04-19T09:56:35;13.40;90.10
52034;DHT22;38045;52.988;6.536;2023-04-19T09:59:05;13.50;90.90
52034;DHT22;38045;52.988;6.536;2023-04-19T10:01:40;13.50;91.30
52034;DHT22;38045;52.988;6.536;2023-04-19T10:04:09;13.60;91.40
52034;DHT22;38045;52.988;6.536;2023-04-19T10:06:35;13.70;91.20
52034;DHT22;38045;52.988;6.536;2023-04-19T10:09:02;13.80;90.30
52034;DHT22;38045;52.988;6.536;2023-04-19T10:11:36;13.90;90.30
52034;DHT22;38045;52.988;6.536;2023-04-19T10:14:07;14.10;90.00
52034;DHT22;38045;52.988;6.536;2023-04-19T10:16:34;14.30;90.70
52034;DHT22;38045;52.988;6.536;2023-04-19T10:19:07;14.50;90.40
52034;DHT22;38045;52.988;6.536;2023-04-19T10:21:33;14.60;83.70
52034;DHT22;38045;52.988;6.536;2023-04-19T10:24:00;14.60;83.00
52034;DHT22;38045;52.988;6.536;2023-04-19T10:26:26;14.50;85.50
52034;DHT22;38045;52.988;6.536;2023-04-19T10:28:54;14.60;82.00
52034;DHT22;38045;52.988;6.536;2023-04-19T10:31:25;14.70;85.30
52034;DHT22;38045;52.988;6.536;2023-04-19T10:33:51;14.90;86.40
52034;DHT22;38045;52.988;6.536;2023-04-19T10:36:17;15.10;86.10
52034;DHT22;38045;52.988;6.536;2023-04-19T10:38:50;15.10;85.10
52034;DHT22;38045;52.988;6.536;2023-04-19T10:41:20;15.10;80.70
52034;DHT22;38045;52.988;6.536;2023-04-19T10:48:59;15.10;82.10
52034;DHT22;38045;52.988;6.536;2023-04-19T10:51:38;15.10;81.10
52034;DHT22;38045;52.988;6.536;2023-04-19T10:57:02;15.10;77.50
52034;DHT22;38045;52.988;6.536;2023-04-19T11:02:36;15.40;81.10
52034;DHT22;38045;52.988;6.536;2023-04-19T11:05:02;15.50;82.20
52034;DHT22;38045;52.988;6.536;2023-04-19T11:07:36;15.70;82.00
52034;DHT22;38045;52.988;6.536;2023-04-19T11:10:01;15.70;79.90
52034;DHT22;38045;52.988;6.536;2023-04-19T11:12:27;15.70;79.30
52034;DHT22;38045;52.988;6.536;2023-04-19T11:14:55;15.60;79.40
52034;DHT22;38045;52.988;6.536;2023-04-19T11:17:31;15.60;79.80
52034;DHT22;38045;52.988;6.536;2023-04-19T11:20:02;15.70;78.80
52034;DHT22;38045;52.988;6.536;2023-04-19T11:22:46;15.80;79.50
52034;DHT22;38045;52.988;6.536;2023-04-19T11:25:16;15.80;77.60
52034;DHT22;38045;52.988;6.536;2023-04-19T11:27:44;15.90;80.00
52034;DHT22;38045;52.988;6.536;2023-04-19T11:30:11;16.00;80.20
52034;DHT22;38045;52.988;6.536;2023-04-19T11:32:50;16.10;80.40
52034;DHT22;38045;52.988;6.536;2023-04-19T11:35:21;16.00;76.90
52034;DHT22;38045;52.988;6.536;2023-04-19T11:37:47;15.70;78.90
52034;DHT22;38045;52.988;6.536;2023-04-19T11:40:17;15.80;80.90
52034;DHT22;38045;52.988;6.536;2023-04-19T11:42:43;15.90;81.60
52034;DHT22;38045;52.988;6.536;2023-04-19T11:45:10;15.90;79.90
52034;DHT22;38045;52.988;6.536;2023-04-19T11:47:49;15.70;79.00
52034;DHT22;38045;52.988;6.536;2023-04-19T11:50:36;15.90;80.20
52034;DHT22;38045;52.988;6.536;2023-04-19T11:53:14;15.90;78.50
52034;DHT22;38045;52.988;6.536;2023-04-19T11:55:49;15.90;79.00
52034;DHT22;38045;52.988;6.536;2023-04-19T11:58:38;16.00;77.70
52034;DHT22;38045;52.988;6.536;2023-04-19T12:01:11;16.10;77.00
52034;DHT22;38045;52.988;6.536;2023-04-19T12:03:45;16.10;76.80
52034;DHT22;38045;52.988;6.536;2023-04-19T12:08:45;16.00;77.60
52034;DHT22;38045;52.988;6.536;2023-04-19T12:11:12;16.10;77.80
52034;DHT22;38045;52.988;6.536;2023-04-19T12:13:38;16.20;77.50
52034;DHT22;38045;52.988;6.536;2023-04-19T12:16:09;16.30;77.60
52034;DHT22;38045;52.988;6.536;2023-04-19T12:18:49;16.40;78.40
52034;DHT22;38045;52.988;6.536;2023-04-19T12:21:28;16.20;74.90
52034;DHT22;38045;52.988;6.536;2023-04-19T12:23:59;16.10;77.60
52034;DHT22;38045;52.988;6.536;2023-04-19T12:26:28;16.00;76.80
52034;DHT22;38045;52.988;6.536;2023-04-19T12:28:55;16.00;77.80
52034;DHT22;38045;52.988;6.536;2023-04-19T12:31:21;16.10;77.40
52034;DHT22;38045;52.988;6.536;2023-04-19T12:33:47;16.20;77.80
52034;DHT22;38045;52.988;6.536;2023-04-19T12:36:13;16.20;77.80
52034;DHT22;38045;52.988;6.536;2023-04-19T12:38:39;16.20;78.30
52034;DHT22;38045;52.988;6.536;2023-04-19T12:41:05;16.20;78.40
52034;DHT22;38045;52.988;6.536;2023-04-19T12:43:31;16.20;78.80
52034;DHT22;38045;52.988;6.536;2023-04-19T12:45:57;16.20;79.10
52034;DHT22;38045;52.988;6.536;2023-04-19T12:48:23;16.20;79.60
52034;DHT22;38045;52.988;6.536;2023-04-19T12:50:49;16.50;80.20
52034;DHT22;38045;52.988;6.536;2023-04-19T12:53:15;16.60;79.80
52034;DHT22;38045;52.988;6.536;2023-04-19T12:55:40;16.60;78.30
52034;DHT22;38045;52.988;6.536;2023-04-19T12:58:06;16.40;78.70
52034;DHT22;38045;52.988;6.536;2023-04-19T13:00:32;16.90;80.20
52034;DHT22;38045;52.988;6.536;2023-04-19T13:02:57;16.30;80.30
52034;DHT22;38045;52.988;6.536;2023-04-19T13:05:23;16.30;79.90
52034;DHT22;38045;52.988;6.536;2023-04-19T13:07:49;16.30;79.90
52034;DHT22;38045;52.988;6.536;2023-04-19T13:10:14;16.30;79.80
52034;DHT22;38045;52.988;6.536;2023-04-19T13:12:40;16.30;79.50
52034;DHT22;38045;52.988;6.536;2023-04-19T13:15:06;16.20;78.30
52034;DHT22;38045;52.988;6.536;2023-04-19T13:17:32;16.00;79.20
52034;DHT22;38045;52.988;6.536;2023-04-19T13:19:57;15.80;79.20
52034;DHT22;38045;52.988;6.536;2023-04-19T13:22:23;15.90;80.30
52034;DHT22;38045;52.988;6.536;2023-04-19T13:24:49;16.20;80.90
52034;DHT22;38045;52.988;6.536;2023-04-19T13:27:14;16.20;78.90
52034;DHT22;38045;52.988;6.536;2023-04-19T13:29:40;16.40;79.00
52034;DHT22;38045;52.988;6.536;2023-04-19T13:32:06;16.50;79.00
52034;DHT22;38045;52.988;6.536;2023-04-19T13:34:32;16.50;80.10
52034;DHT22;38045;52.988;6.536;2023-04-19T13:36:57;16.60;79.10
52034;DHT22;38045;52.988;6.536;2023-04-19T13:39:24;16.60;79.00
52034;DHT22;38045;52.988;6.536;2023-04-19T13:41:49;16.70;80.00
52034;DHT22;38045;52.988;6.536;2023-04-19T13:44:15;16.90;80.20
52034;DHT22;38045;52.988;6.536;2023-04-19T13:46:40;16.60;78.50
52034;DHT22;38045;52.988;6.536;2023-04-19T13:49:06;16.40;78.00
52034;DHT22;38045;52.988;6.536;2023-04-19T13:51:32;16.50;80.00
52034;DHT22;38045;52.988;6.536;2023-04-19T13:53:57;16.40;78.60
52034;DHT22;38045;52.988;6.536;2023-04-19T13:56:23;16.30;79.00
52034;DHT22;38045;52.988;6.536;2023-04-19T13:58:48;16.20;79.30
52034;DHT22;38045;52.988;6.536;2023-04-19T14:01:14;16.40;79.20
52034;DHT22;38045;52.988;6.536;2023-04-19T14:03:39;16.20;78.30
52034;DHT22;38045;52.988;6.536;2023-04-19T14:06:05;16.10;77.80
52034;DHT22;38045;52.988;6.536;2023-04-19T14:08:31;15.80;77.90
52034;DHT22;38045;52.988;6.536;2023-04-19T14:10:56;15.80;78.70
52034;DHT22;38045;52.988;6.536;2023-04-19T14:13:22;16.00;79.20
52034;DHT22;38045;52.988;6.536;2023-04-19T14:15:48;15.90;79.20
52034;DHT22;38045;52.988;6.536;2023-04-19T14:18:13;16.00;77.90
52034;DHT22;38045;52.988;6.536;2023-04-19T14:20:39;16.00;78.10
52034;DHT22;38045;52.988;6.536;2023-04-19T14:23:04;15.80;77.40
52034;DHT22;38045;52.988;6.536;2023-04-19T14:25:30;15.80;77.60
52034;DHT22;38045;52.988;6.536;2023-04-19T14:27:57;15.80;77.80
52034;DHT22;38045;52.988;6.536;2023-04-19T14:30:23;15.90;78.70
52034;DHT22;38045;52.988;6.536;2023-04-19T14:32:50;16.00;78.50
52034;DHT22;38045;52.988;6.536;2023-04-19T14:35:16;16.10;78.80
52034;DHT22;38045;52.988;6.536;2023-04-19T14:37:41;16.40;78.50
52034;DHT22;38045;52.988;6.536;2023-04-19T14:40:08;16.60;78.00
52034;DHT22;38045;52.988;6.536;2023-04-19T14:42:34;16.70;77.00
52034;DHT22;38045;52.988;6.536;2023-04-19T14:45:00;16.60;76.60
52034;DHT22;38045;52.988;6.536;2023-04-19T14:47:26;16.60;76.10
52034;DHT22;38045;52.988;6.536;2023-04-19T14:49:51;16.50;75.20
52034;DHT22;38045;52.988;6.536;2023-04-19T14:52:17;16.30;76.20
52034;DHT22;38045;52.988;6.536;2023-04-19T14:54:43;16.30;77.00
52034;DHT22;38045;52.988;6.536;2023-04-19T14:57:08;16.30;78.00
52034;DHT22;38045;52.988;6.536;2023-04-19T14:59:34;16.40;78.90
52034;DHT22;38045;52.988;6.536;2023-04-19T15:02:00;16.40;78.50
52034;DHT22;38045;52.988;6.536;2023-04-19T15:04:25;16.30;78.30
52034;DHT22;38045;52.988;6.536;2023-04-19T15:06:51;16.30;78.90
52034;DHT22;38045;52.988;6.536;2023-04-19T15:09:16;16.20;78.70
52034;DHT22;38045;52.988;6.536;2023-04-19T15:11:43;16.20;78.30
52034;DHT22;38045;52.988;6.536;2023-04-19T15:14:08;15.90;77.50
52034;DHT22;38045;52.988;6.536;2023-04-19T15:16:35;15.70;78.20
52034;DHT22;38045;52.988;6.536;2023-04-19T15:19:00;15.70;78.30
52034;DHT22;38045;52.988;6.536;2023-04-19T15:21:27;15.80;80.00
52034;DHT22;38045;52.988;6.536;2023-04-19T15:23:53;16.00;81.80
52034;DHT22;38045;52.988;6.536;2023-04-19T15:26:18;15.80;82.30
52034;DHT22;38045;52.988;6.536;2023-04-19T15:28:45;15.70;83.60
52034;DHT22;38045;52.988;6.536;2023-04-19T15:31:11;15.60;86.10
52034;DHT22;38045;52.988;6.536;2023-04-19T15:33:37;15.10;86.80
52034;DHT22;38045;52.988;6.536;2023-04-19T15:36:03;14.90;86.30
52034;DHT22;38045;52.988;6.536;2023-04-19T15:38:30;14.90;87.50
52034;DHT22;38045;52.988;6.536;2023-04-19T15:40:57;15.00;87.70
52034;DHT22;38045;52.988;6.536;2023-04-19T15:43:24;15.00;84.10
52034;DHT22;38045;52.988;6.536;2023-04-19T15:45:50;15.20;82.60
52034;DHT22;38045;52.988;6.536;2023-04-19T15:48:16;15.20;82.60
52034;DHT22;38045;52.988;6.536;2023-04-19T15:50:41;15.40;83.00
52034;DHT22;38045;52.988;6.536;2023-04-19T15:53:07;15.40;82.10
52034;DHT22;38045;52.988;6.536;2023-04-19T15:55:34;15.50;81.80